createdAt,value
2017-11-11T00:01:25.078Z,8.23
2017-11-11T00:03:51.504Z,8.28
2017-11-11T00:06:18.665Z,8.33
2017-11-11T00:08:45.091Z,8.37
2017-11-11T00:11:11.534Z,8.36
2017-11-11T00:13:37.964Z,8.34
2017-11-11T00:16:04.395Z,8.34
2017-11-11T00:18:30.839Z,8.37
2017-11-11T00:20:57.272Z,8.41
2017-11-11T00:23:24.531Z,8.35
2017-11-11T00:25:50.961Z,8.38
2017-11-11T00:28:17.388Z,8.42
2017-11-11T00:30:43.830Z,8.38
2017-11-11T00:33:10.155Z,8.42
2017-11-11T00:35:36.589Z,8.43
2017-11-11T00:38:03.032Z,8.40
2017-11-11T00:40:30.180Z,8.30
2017-11-11T00:42:56.613Z,8.23
2017-11-11T00:45:23.052Z,8.18
2017-11-11T00:47:49.488Z,8.06
2017-11-11T00:50:15.914Z,7.99
2017-11-11T00:52:42.350Z,7.96
2017-11-11T00:55:08.782Z,7.95
2017-11-11T00:57:35.218Z,7.89
2017-11-11T01:00:01.738Z,7.87
2017-11-11T01:02:28.189Z,7.84
2017-11-11T01:04:54.623Z,7.81
2017-11-11T01:07:21.068Z,7.74
2017-11-11T01:09:47.495Z,7.54
2017-11-11T01:12:13.928Z,7.43
2017-11-11T01:14:40.374Z,7.36
2017-11-11T01:17:06.806Z,7.37
2017-11-11T01:19:33.232Z,7.45
2017-11-11T01:21:59.671Z,7.51
2017-11-11T01:24:26.101Z,7.55
2017-11-11T01:26:52.546Z,7.59
2017-11-11T01:29:18.971Z,7.59
2017-11-11T01:31:45.508Z,7.56
2017-11-11T01:34:11.923Z,7.61
2017-11-11T01:36:39.099Z,7.59
2017-11-11T01:39:05.529Z,7.64
2017-11-11T01:41:31.972Z,7.71
2017-11-11T01:43:58.331Z,7.66
2017-11-11T01:46:24.730Z,7.48
2017-11-11T01:48:51.166Z,7.30
2017-11-11T01:51:17.601Z,7.21
2017-11-11T01:53:44.812Z,7.12
2017-11-11T01:56:11.285Z,7.09
2017-11-11T01:58:37.826Z,6.97
2017-11-11T02:01:04.261Z,6.86
2017-11-11T02:03:30.595Z,6.83
2017-11-11T02:05:57.046Z,6.84
2017-11-11T02:08:23.462Z,6.81
2017-11-11T02:10:50.719Z,6.83
2017-11-11T02:13:17.159Z,6.82
2017-11-11T02:15:43.572Z,6.77
2017-11-11T02:20:41.165Z,6.44
2017-11-11T02:23:07.708Z,6.21
2017-11-11T02:25:34.137Z,6.39
2017-11-11T02:28:00.580Z,6.42
2017-11-11T02:30:27.006Z,6.53
2017-11-11T02:32:53.339Z,6.58
2017-11-11T02:35:19.782Z,6.64
2017-11-11T02:37:46.208Z,6.62
2017-11-11T02:40:12.643Z,6.64
2017-11-11T02:42:39.080Z,6.54
2017-11-11T02:45:05.520Z,6.41
2017-11-11T02:47:32.775Z,6.26
2017-11-11T02:49:59.200Z,6.16
2017-11-11T02:52:25.620Z,6.17
2017-11-11T02:54:52.063Z,6.14
2017-11-11T02:57:18.508Z,6.13
2017-11-11T02:59:44.952Z,6.06
2017-11-11T03:02:11.394Z,5.90
2017-11-11T03:04:38.629Z,5.71
2017-11-11T03:07:05.071Z,5.55
2017-11-11T03:09:31.497Z,5.44
2017-11-11T03:11:57.940Z,5.42
2017-11-11T03:14:24.265Z,5.52
2017-11-11T03:16:50.707Z,5.61
2017-11-11T03:19:17.033Z,5.66
2017-11-11T03:21:44.323Z,5.65
2017-11-11T03:24:10.832Z,5.52
2017-11-11T03:26:37.234Z,5.65
2017-11-11T03:29:03.676Z,5.68
2017-11-11T03:31:30.135Z,5.71
2017-11-11T03:33:56.569Z,5.76
2017-11-11T03:36:22.952Z,5.84
2017-11-11T03:38:50.259Z,5.77
2017-11-11T03:41:16.619Z,5.76
2017-11-11T03:43:43.129Z,5.87
2017-11-11T03:46:09.556Z,5.92
2017-11-11T03:48:35.990Z,5.87
2017-11-11T03:51:02.370Z,5.88
2017-11-11T03:53:28.757Z,5.88
2017-11-11T03:55:55.906Z,6.07
2017-11-11T03:58:22.299Z,6.02
2017-11-11T04:00:48.688Z,6.02
2017-11-11T04:03:15.108Z,6.10
2017-11-11T04:05:41.543Z,6.17
2017-11-11T04:08:07.987Z,6.19
2017-11-11T04:10:34.352Z,6.19
2017-11-11T04:13:01.573Z,6.05
2017-11-11T04:15:27.902Z,5.95
2017-11-11T04:17:54.341Z,5.88
2017-11-11T04:20:20.766Z,5.78
2017-11-11T04:22:47.201Z,5.77
2017-11-11T04:25:13.643Z,5.77
2017-11-11T04:27:40.069Z,5.67
2017-11-11T04:30:07.204Z,5.58
2017-11-11T04:32:33.554Z,5.48
2017-11-11T04:34:59.988Z,5.51
2017-11-11T04:37:26.450Z,5.43
2017-11-11T04:39:52.857Z,5.36
2017-11-11T04:42:19.294Z,5.35
2017-11-11T04:44:45.737Z,5.32
2017-11-11T04:47:12.901Z,5.26
2017-11-11T04:49:39.314Z,5.25
2017-11-11T04:52:05.757Z,5.11
2017-11-11T04:54:32.182Z,5.14
2017-11-11T04:56:58.621Z,5.07
2017-11-11T04:59:24.950Z,5.12
2017-11-11T05:01:51.487Z,5.16
2017-11-11T05:04:18.535Z,5.23
2017-11-11T05:06:44.940Z,5.25
2017-11-11T05:09:11.376Z,5.30
2017-11-11T05:11:37.840Z,5.37
2017-11-11T05:14:04.207Z,5.44
2017-11-11T05:16:30.607Z,5.55
2017-11-11T05:18:57.061Z,5.68
2017-11-11T05:21:24.193Z,5.74
2017-11-11T05:23:50.649Z,5.85
2017-11-11T05:26:17.086Z,5.91
2017-11-11T05:28:43.517Z,5.95
2017-11-11T05:31:09.904Z,5.98
2017-11-11T05:33:36.334Z,5.95
2017-11-11T05:36:02.812Z,6.24
2017-11-11T05:38:29.930Z,6.34
2017-11-11T05:40:56.325Z,6.38
2017-11-11T05:43:22.691Z,6.46
2017-11-11T05:45:49.052Z,6.56
2017-11-11T05:48:15.487Z,6.65
2017-11-11T05:50:41.922Z,6.70
2017-11-11T05:53:08.357Z,6.71
2017-11-11T05:55:35.452Z,6.69
2017-11-11T05:58:01.857Z,6.68
2017-11-11T06:00:28.275Z,6.69
2017-11-11T06:02:54.719Z,6.75
2017-11-11T06:05:21.144Z,6.97
2017-11-11T06:07:47.599Z,7.10
2017-11-11T06:10:14.013Z,7.15
2017-11-11T06:12:41.302Z,7.29
2017-11-11T06:15:07.723Z,7.41
2017-11-11T06:17:34.137Z,7.53
2017-11-11T06:20:00.677Z,7.66
2017-11-11T06:22:27.006Z,7.67
2017-11-11T06:24:53.441Z,7.73
2017-11-11T06:27:19.876Z,7.86
2017-11-11T06:29:47.137Z,7.91
2017-11-11T06:32:13.564Z,8.10
2017-11-11T06:34:39.900Z,8.30
2017-11-11T06:37:06.341Z,8.42
2017-11-11T06:39:32.774Z,8.59
2017-11-11T06:41:59.135Z,8.70
2017-11-11T06:44:25.646Z,8.80
2017-11-11T06:46:52.760Z,8.86
2017-11-11T06:49:19.203Z,8.84
2017-11-11T06:51:45.652Z,8.85
2017-11-11T06:54:12.095Z,8.91
2017-11-11T06:56:38.536Z,8.93
2017-11-11T06:59:04.932Z,9.06
2017-11-11T07:01:31.364Z,9.18
2017-11-11T07:03:58.558Z,9.24
2017-11-11T07:06:24.989Z,9.41
2017-11-11T07:08:51.426Z,9.46
2017-11-11T07:11:17.787Z,9.58
2017-11-11T07:13:44.184Z,9.75
2017-11-11T07:16:10.516Z,9.87
2017-11-11T07:18:36.832Z,9.94
2017-11-11T07:21:04.103Z,9.98
2017-11-11T07:23:30.519Z,9.95
2017-11-11T07:25:56.961Z,10.03
2017-11-11T07:28:23.416Z,10.15
2017-11-11T07:30:49.850Z,10.28
2017-11-11T07:33:16.284Z,10.24
2017-11-11T07:35:42.722Z,10.48
2017-11-11T07:38:09.860Z,10.56
2017-11-11T07:40:36.297Z,10.59
2017-11-11T07:43:03.232Z,10.63
2017-11-11T07:45:29.778Z,10.71
2017-11-11T07:47:56.213Z,10.83
2017-11-11T07:50:22.752Z,10.99
2017-11-11T07:52:49.076Z,11.18
2017-11-11T07:55:15.518Z,11.36
2017-11-11T07:57:41.951Z,11.45
2017-11-11T08:00:08.469Z,11.52
2017-11-11T08:02:35.436Z,11.53
2017-11-11T08:05:01.870Z,11.71
2017-11-11T08:07:28.255Z,11.76
2017-11-11T08:09:54.751Z,11.81
2017-11-11T08:12:21.091Z,11.83
2017-11-11T08:14:47.512Z,11.80
2017-11-11T08:17:13.932Z,11.80
2017-11-11T08:19:40.377Z,11.69
2017-11-11T08:22:06.810Z,11.85
2017-11-11T08:24:33.356Z,11.75
2017-11-11T08:26:59.825Z,11.95
2017-11-11T08:29:26.356Z,11.99
2017-11-11T08:31:52.764Z,12.04
2017-11-11T08:34:19.121Z,12.04
2017-11-11T08:36:45.521Z,12.03
2017-11-11T08:39:11.967Z,11.98
2017-11-11T08:41:38.428Z,11.92
2017-11-11T08:44:04.872Z,11.87
2017-11-11T08:46:31.875Z,11.81
2017-11-11T08:48:58.311Z,11.77
2017-11-11T08:51:25.204Z,11.74
2017-11-11T08:53:51.692Z,11.75
2017-11-11T08:56:18.125Z,11.75
2017-11-11T08:58:44.670Z,11.75
2017-11-11T09:01:11.304Z,11.75
2017-11-11T09:03:37.737Z,11.77
2017-11-11T09:06:04.055Z,11.82
2017-11-11T09:08:30.439Z,11.80
2017-11-11T09:10:56.941Z,11.94
2017-11-11T09:13:23.392Z,12.03
2017-11-11T09:15:49.808Z,12.15
2017-11-11T09:18:16.217Z,12.24
2017-11-11T09:20:42.779Z,12.33
2017-11-11T09:23:09.419Z,12.43
2017-11-11T09:25:35.795Z,12.54
2017-11-11T09:28:02.153Z,12.58
2017-11-11T09:30:28.618Z,12.51
2017-11-11T09:32:55.025Z,12.68
2017-11-11T09:35:21.511Z,12.69
2017-11-11T09:37:47.928Z,12.78
2017-11-11T09:40:14.403Z,12.84
2017-11-11T09:42:40.794Z,12.79
2017-11-11T09:45:07.126Z,12.76
2017-11-11T09:47:33.497Z,12.74
2017-11-11T09:50:00.018Z,12.66
2017-11-11T09:52:26.541Z,12.60
2017-11-11T09:54:53.070Z,12.56
2017-11-11T09:57:19.941Z,12.49
2017-11-11T09:59:46.423Z,12.49
2017-11-11T10:02:12.886Z,12.49
2017-11-11T10:04:39.730Z,12.55
2017-11-11T10:07:06.164Z,12.61
2017-11-11T10:09:32.600Z,12.65
2017-11-11T10:11:59.238Z,12.70
2017-11-11T10:14:25.878Z,12.71
2017-11-11T10:16:52.313Z,12.65
2017-11-11T10:19:18.952Z,12.49
2017-11-11T10:21:45.423Z,12.54
2017-11-11T10:24:11.770Z,12.50
2017-11-11T10:26:38.566Z,12.57
2017-11-11T10:29:05.007Z,12.66
2017-11-11T10:31:31.543Z,12.78
2017-11-11T10:33:58.144Z,12.97
2017-11-11T10:36:24.549Z,13.18
2017-11-11T10:38:51.672Z,13.34
2017-11-11T10:41:18.195Z,13.48
2017-11-11T10:43:44.640Z,13.64
2017-11-11T10:46:11.557Z,13.80
2017-11-11T10:48:38.000Z,13.90
2017-11-11T10:51:04.520Z,14.03
2017-11-11T10:53:30.920Z,14.21
2017-11-11T10:55:57.602Z,14.41
2017-11-11T10:58:24.045Z,14.53
2017-11-11T11:00:50.735Z,14.68
2017-11-11T11:03:17.243Z,14.74
2017-11-11T11:05:43.701Z,14.76
2017-11-11T11:08:10.368Z,14.77
2017-11-11T11:10:36.861Z,14.83
2017-11-11T11:13:03.280Z,14.89
2017-11-11T11:15:29.827Z,15.00
2017-11-11T11:17:56.187Z,15.13
2017-11-11T11:20:22.584Z,15.22
2017-11-11T11:22:49.027Z,15.28
2017-11-11T11:25:15.536Z,15.38
2017-11-11T11:27:41.983Z,15.60
2017-11-11T11:30:08.533Z,15.89
2017-11-11T11:32:34.903Z,16.71
2017-11-11T11:35:01.406Z,17.72
2017-11-11T11:37:27.836Z,18.45
2017-11-11T11:39:54.377Z,19.30
2017-11-11T11:42:20.803Z,19.96
2017-11-11T11:44:47.260Z,20.42
2017-11-11T11:47:14.124Z,21.10
2017-11-11T11:49:40.588Z,21.18
2017-11-11T11:52:06.993Z,20.83
2017-11-11T11:54:33.405Z,20.42
2017-11-11T11:56:59.879Z,20.04
2017-11-11T11:59:26.297Z,19.52
2017-11-11T12:01:52.792Z,19.07
2017-11-11T12:04:19.227Z,18.72
2017-11-11T12:06:45.560Z,18.39
2017-11-11T12:09:12.017Z,18.10
2017-11-11T12:11:38.521Z,17.94
2017-11-11T12:14:04.967Z,17.60
2017-11-11T12:16:31.402Z,17.50
2017-11-11T12:18:57.836Z,17.14
2017-11-11T12:21:24.172Z,17.08
2017-11-11T12:23:50.603Z,16.95
2017-11-11T12:26:17.028Z,16.80
2017-11-11T12:28:43.545Z,16.75
2017-11-11T12:31:10.124Z,16.80
2017-11-11T12:33:36.550Z,16.84
2017-11-11T12:36:02.984Z,16.87
2017-11-11T12:38:29.433Z,16.82
2017-11-11T12:40:55.954Z,16.75
2017-11-11T12:43:22.506Z,16.70
2017-11-11T12:45:48.864Z,16.68
2017-11-11T12:48:15.367Z,16.66
2017-11-11T12:50:42.347Z,16.63
2017-11-11T12:53:08.750Z,16.64
2017-11-11T12:55:35.178Z,16.59
2017-11-11T12:58:01.621Z,16.53
2017-11-11T13:00:28.057Z,16.26
2017-11-11T13:02:54.484Z,16.39
2017-11-11T13:05:20.914Z,16.31
2017-11-11T13:07:48.073Z,16.40
2017-11-11T13:10:14.612Z,16.29
2017-11-11T13:12:41.047Z,16.24
2017-11-11T13:15:07.491Z,16.26
2017-11-11T13:17:33.906Z,16.09
2017-11-11T13:20:00.341Z,16.02
2017-11-11T13:22:26.780Z,15.89
2017-11-11T13:24:54.000Z,15.76
2017-11-11T13:27:20.403Z,15.69
2017-11-11T13:29:46.908Z,15.57
2017-11-11T13:32:13.340Z,15.50
2017-11-11T13:34:39.793Z,15.53
2017-11-11T13:37:06.169Z,15.52
2017-11-11T13:39:32.629Z,15.40
2017-11-11T13:41:59.671Z,15.40
2017-11-11T13:44:26.121Z,15.32
2017-11-11T13:46:52.558Z,15.29
2017-11-11T13:49:18.928Z,15.23
2017-11-11T13:51:45.434Z,15.16
2017-11-11T13:54:11.860Z,15.12
2017-11-11T13:56:38.295Z,15.06
2017-11-11T13:59:05.582Z,14.87
2017-11-11T14:01:32.094Z,14.90
2017-11-11T14:03:58.529Z,14.87
2017-11-11T14:06:24.957Z,14.82
2017-11-11T14:08:51.390Z,14.75
2017-11-11T14:11:17.824Z,14.64
2017-11-11T14:13:44.248Z,14.62
2017-11-11T14:16:11.309Z,14.58
2017-11-11T14:18:37.840Z,14.37
2017-11-11T14:21:04.285Z,14.48
2017-11-11T14:23:30.725Z,14.44
2017-11-11T14:25:57.151Z,14.39
2017-11-11T14:28:23.586Z,14.32
2017-11-11T14:30:50.019Z,14.26
2017-11-11T14:33:17.170Z,14.22
2017-11-11T14:35:43.503Z,14.19
2017-11-11T14:38:09.939Z,14.15
2017-11-11T14:40:36.333Z,14.12
2017-11-11T14:43:02.806Z,14.13
2017-11-11T14:45:29.250Z,14.10
2017-11-11T14:47:55.781Z,14.06
2017-11-11T14:50:22.830Z,14.01
2017-11-11T14:52:49.200Z,13.98
2017-11-11T14:55:15.704Z,13.88
2017-11-11T14:57:42.132Z,13.88
2017-11-11T15:00:08.574Z,13.88
2017-11-11T15:02:34.900Z,13.95
2017-11-11T15:05:01.333Z,13.96
2017-11-11T15:07:27.777Z,13.87
2017-11-11T15:09:54.202Z,13.84
2017-11-11T15:12:20.656Z,13.81
2017-11-11T15:14:46.986Z,13.72
2017-11-11T15:17:13.461Z,13.65
2017-11-11T15:19:39.951Z,13.60
2017-11-11T15:22:06.320Z,13.56
2017-11-11T15:24:33.555Z,13.53
2017-11-11T15:27:00.079Z,13.49
2017-11-11T15:29:26.500Z,13.45
2017-11-11T15:31:52.831Z,13.43
2017-11-11T15:34:19.267Z,13.42
2017-11-11T15:36:45.709Z,13.41
2017-11-11T15:39:12.136Z,13.37
2017-11-11T15:41:39.288Z,13.34
2017-11-11T15:44:05.730Z,13.32
2017-11-11T15:46:32.157Z,13.27
2017-11-11T15:48:58.609Z,13.23
2017-11-11T15:51:25.035Z,13.21
2017-11-11T15:53:51.461Z,13.15
2017-11-11T15:56:17.905Z,13.16
2017-11-11T15:58:44.945Z,13.12
2017-11-11T16:01:11.352Z,13.11
2017-11-11T16:03:37.838Z,13.10
2017-11-11T16:06:04.190Z,13.09
2017-11-11T16:08:30.695Z,13.04
2017-11-11T16:10:57.119Z,12.98
2017-11-11T16:13:23.556Z,12.93
2017-11-11T16:15:50.708Z,12.89
2017-11-11T16:18:17.242Z,12.86
2017-11-11T16:20:43.684Z,12.78
2017-11-11T16:23:10.109Z,12.73
2017-11-11T16:25:36.545Z,12.73
2017-11-11T16:28:02.993Z,12.71
2017-11-11T16:30:29.415Z,12.64
2017-11-11T16:32:56.669Z,12.59
2017-11-11T16:35:23.002Z,12.55
2017-11-11T16:37:49.444Z,12.56
2017-11-11T16:40:15.871Z,12.56
2017-11-11T16:42:42.314Z,12.55
2017-11-11T16:45:09.059Z,12.57
2017-11-11T16:47:35.482Z,12.58
2017-11-11T16:50:02.635Z,12.58
2017-11-11T16:52:29.067Z,12.58
2017-11-11T16:54:55.511Z,12.63
2017-11-11T16:57:21.937Z,12.63
2017-11-11T16:59:48.365Z,12.61
2017-11-11T17:02:14.815Z,12.60
2017-11-11T17:04:41.242Z,12.51
2017-11-11T17:07:08.503Z,12.54
2017-11-11T17:09:34.930Z,12.52
2017-11-11T17:12:01.365Z,12.51
2017-11-11T17:14:27.809Z,12.46
2017-11-11T17:16:54.175Z,12.46
2017-11-11T17:19:20.668Z,12.42
2017-11-11T17:21:47.001Z,12.38
2017-11-11T17:24:14.264Z,12.36
2017-11-11T17:26:40.693Z,12.36
2017-11-11T17:29:07.135Z,12.31
2017-11-11T17:31:33.670Z,12.30
2017-11-11T17:34:00.104Z,12.27
2017-11-11T17:36:26.538Z,12.28
2017-11-11T17:38:52.966Z,12.26
2017-11-11T17:41:20.204Z,12.27
2017-11-11T17:43:46.654Z,12.23
2017-11-11T17:46:12.968Z,12.24
2017-11-11T17:48:39.428Z,12.23
2017-11-11T17:51:05.792Z,12.22
2017-11-11T17:53:32.188Z,12.22
2017-11-11T17:55:58.633Z,12.23
2017-11-11T17:58:25.878Z,12.19
2017-11-11T18:00:52.322Z,12.19
2017-11-11T18:03:18.771Z,12.17
2017-11-11T18:05:45.180Z,12.09
2017-11-11T18:08:11.585Z,12.04
2017-11-11T18:10:38.049Z,12.05
2017-11-11T18:13:04.484Z,12.03
2017-11-11T18:15:31.750Z,11.96
2017-11-11T18:17:58.112Z,12.04
2017-11-11T18:20:24.465Z,12.03
2017-11-11T18:22:50.840Z,12.07
2017-11-11T18:25:17.389Z,12.05
2017-11-11T18:27:43.817Z,12.05
2017-11-11T18:30:10.253Z,12.06
2017-11-11T18:32:37.510Z,12.07
2017-11-11T18:35:03.933Z,12.04
2017-11-11T18:37:30.320Z,11.99
2017-11-11T18:39:56.799Z,11.96
2017-11-11T18:42:23.237Z,11.95
2017-11-11T18:44:49.860Z,11.82
2017-11-11T18:47:16.315Z,11.92
2017-11-11T18:49:43.575Z,11.91
2017-11-11T18:52:09.968Z,11.90
2017-11-11T18:54:36.433Z,11.87
2017-11-11T18:57:02.877Z,11.87
2017-11-11T18:59:29.302Z,11.64
2017-11-11T19:01:55.747Z,11.81
2017-11-11T19:04:22.172Z,11.82
2017-11-11T19:06:49.282Z,11.80
2017-11-11T19:09:15.772Z,11.76
2017-11-11T19:11:42.135Z,11.74
2017-11-11T19:14:08.636Z,11.75
2017-11-11T19:16:35.082Z,11.76
2017-11-11T19:19:01.497Z,11.79
2017-11-11T19:21:27.941Z,11.77
2017-11-11T19:23:55.185Z,11.71
2017-11-11T19:26:21.621Z,11.68
2017-11-11T19:28:48.055Z,11.70
2017-11-11T19:31:14.423Z,11.69
2017-11-11T19:33:40.934Z,11.66
2017-11-11T19:36:07.362Z,11.63
2017-11-11T19:38:33.803Z,11.61
2017-11-11T19:41:01.066Z,11.61
2017-11-11T19:43:27.502Z,11.60
2017-11-11T19:45:53.917Z,11.58
2017-11-11T19:48:20.352Z,11.59
2017-11-11T19:50:46.787Z,11.59
2017-11-11T19:53:13.220Z,11.57
2017-11-11T19:55:39.758Z,11.54
2017-11-11T19:58:06.807Z,11.51
2017-11-11T20:00:33.270Z,11.44
2017-11-11T20:02:59.787Z,11.39
2017-11-11T20:05:26.213Z,11.38
2017-11-11T20:07:52.656Z,11.40
2017-11-11T20:10:19.091Z,11.38
2017-11-11T20:12:45.629Z,11.41
2017-11-11T20:15:12.669Z,11.42
2017-11-11T20:17:39.112Z,11.37
2017-11-11T20:20:05.539Z,11.20
2017-11-11T20:22:31.974Z,11.31
2017-11-11T20:24:58.347Z,11.16
2017-11-11T20:27:24.740Z,11.34
2017-11-11T20:29:51.185Z,11.34
2017-11-11T20:32:18.327Z,11.30
2017-11-11T20:34:44.769Z,11.30
2017-11-11T20:37:11.196Z,11.31
2017-11-11T20:39:37.630Z,11.33
2017-11-11T20:42:04.065Z,11.39
2017-11-11T20:44:30.917Z,11.44
2017-11-11T20:46:57.344Z,11.47
2017-11-11T20:49:24.606Z,11.49
2017-11-11T20:51:51.033Z,11.37
2017-11-11T20:54:17.494Z,11.51
2017-11-11T20:56:43.902Z,11.39
2017-11-11T20:59:10.337Z,11.39
2017-11-11T21:01:36.706Z,11.37
2017-11-11T21:04:03.046Z,11.38
2017-11-11T21:06:30.261Z,11.36
2017-11-11T21:08:56.698Z,11.34
2017-11-11T21:11:23.133Z,11.30
2017-11-11T21:13:49.494Z,11.30
2017-11-11T21:16:16.005Z,11.32
2017-11-11T21:18:42.367Z,11.36
2017-11-11T21:21:08.760Z,11.36
2017-11-11T21:23:36.015Z,11.30
2017-11-11T21:26:02.459Z,11.30
2017-11-11T21:28:28.884Z,11.31
2017-11-11T21:30:55.933Z,11.30
2017-11-11T21:33:22.335Z,11.32
2017-11-11T21:35:48.808Z,11.35
2017-11-11T21:38:15.266Z,11.34
2017-11-11T21:40:42.323Z,11.31
2017-11-11T21:43:08.831Z,11.30
2017-11-11T21:45:35.287Z,11.29
2017-11-11T21:48:01.803Z,11.29
2017-11-11T21:50:28.165Z,11.26
2017-11-11T21:52:54.673Z,11.22
2017-11-11T21:55:21.010Z,11.20
2017-11-11T21:57:48.363Z,11.12
2017-11-11T22:00:14.813Z,11.25
2017-11-11T22:02:41.336Z,11.22
2017-11-11T22:05:07.760Z,11.22
2017-11-11T22:07:34.812Z,11.21
2017-11-11T22:10:01.937Z,11.19
2017-11-11T22:12:30.243Z,11.19
2017-11-11T22:14:57.208Z,11.18
2017-11-11T22:17:24.367Z,11.21
2017-11-11T22:19:51.348Z,11.21
2017-11-11T22:22:18.301Z,11.19
2017-11-11T22:24:45.210Z,11.19
2017-11-11T22:27:12.337Z,11.21
2017-11-11T22:29:39.486Z,11.08
2017-11-11T22:32:06.631Z,11.26
2017-11-11T22:34:33.801Z,11.29
2017-11-11T22:37:00.943Z,11.31
2017-11-11T22:39:27.987Z,11.31
2017-11-11T22:41:54.938Z,11.33
2017-11-11T22:44:21.885Z,11.40
2017-11-11T22:46:49.036Z,11.39
2017-11-11T22:49:16.088Z,11.39
2017-11-11T22:51:43.133Z,11.37
2017-11-11T22:54:09.627Z,11.31
2017-11-11T22:56:36.101Z,11.24
2017-11-11T22:59:02.593Z,11.17
2017-11-11T23:01:28.968Z,11.09
2017-11-11T23:03:55.402Z,11.06
2017-11-11T23:06:21.844Z,11.03
2017-11-11T23:08:48.279Z,11.08
2017-11-11T23:11:14.705Z,11.08
2017-11-11T23:13:41.075Z,11.06
2017-11-11T23:16:08.332Z,11.06
2017-11-11T23:18:34.727Z,11.00
2017-11-11T23:21:01.171Z,11.00
2017-11-11T23:23:27.596Z,10.96
2017-11-11T23:25:53.929Z,10.91
2017-11-11T23:28:20.364Z,10.93
2017-11-11T23:30:46.696Z,10.98
2017-11-11T23:33:14.021Z,10.99
2017-11-11T23:35:40.469Z,11.03
2017-11-11T23:38:06.925Z,11.04
2017-11-11T23:40:33.358Z,11.09
2017-11-11T23:42:59.800Z,11.09
2017-11-11T23:45:26.235Z,10.90
2017-11-11T23:47:52.664Z,11.11
2017-11-11T23:50:19.915Z,11.12
2017-11-11T23:52:46.351Z,11.15
2017-11-11T23:55:12.790Z,11.16
2017-11-11T23:57:39.220Z,11.17
